sensor_id;sensor_type;location;lat;lon;timestamp;temperature;humidity
39021;DHT22;25188;51.958;5.842;2022-07-30T00:01:59;20.10;78.40
39021;DHT22;25188;51.958;5.842;2022-07-30T00:04:25;20.00;78.70
39021;DHT22;25188;51.958;5.842;2022-07-30T00:06:51;20.00;79.00
39021;DHT22;25188;51.958;5.842;2022-07-30T00:09:16;20.00;79.40
39021;DHT22;25188;51.958;5.842;2022-07-30T00:11:42;19.90;79.70
39021;DHT22;25188;51.958;5.842;2022-07-30T00:14:08;19.90;80.00
39021;DHT22;25188;51.958;5.842;2022-07-30T00:16:34;19.90;80.30
39021;DHT22;25188;51.958;5.842;2022-07-30T00:19:00;19.90;80.60
39021;DHT22;25188;51.958;5.842;2022-07-30T00:21:26;19.80;80.80
39021;DHT22;25188;51.958;5.842;2022-07-30T00:23:52;19.80;81.00
39021;DHT22;25188;51.958;5.842;2022-07-30T00:26:20;19.70;81.20
39021;DHT22;25188;51.958;5.842;2022-07-30T00:28:46;19.70;81.40
39021;DHT22;25188;51.958;5.842;2022-07-30T00:31:12;19.70;81.70
39021;DHT22;25188;51.958;5.842;2022-07-30T00:33:37;19.70;82.00
39021;DHT22;25188;51.958;5.842;2022-07-30T00:36:03;19.60;82.30
39021;DHT22;25188;51.958;5.842;2022-07-30T00:38:29;19.60;82.50
39021;DHT22;25188;51.958;5.842;2022-07-30T00:40:54;19.60;82.70
39021;DHT22;25188;51.958;5.842;2022-07-30T00:43:20;19.50;82.90
39021;DHT22;25188;51.958;5.842;2022-07-30T00:45:46;19.50;83.20
39021;DHT22;25188;51.958;5.842;2022-07-30T00:48:12;19.50;83.40
39021;DHT22;25188;51.958;5.842;2022-07-30T00:50:39;19.50;83.60
39021;DHT22;25188;51.958;5.842;2022-07-30T00:53:05;19.40;83.80
39021;DHT22;25188;51.958;5.842;2022-07-30T00:55:31;19.40;84.00
39021;DHT22;25188;51.958;5.842;2022-07-30T00:57:57;19.40;84.20
39021;DHT22;25188;51.958;5.842;2022-07-30T01:00:23;19.30;84.40
39021;DHT22;25188;51.958;5.842;2022-07-30T01:02:49;19.30;84.60
39021;DHT22;25188;51.958;5.842;2022-07-30T01:05:15;19.30;84.70
39021;DHT22;25188;51.958;5.842;2022-07-30T01:07:41;19.30;85.00
39021;DHT22;25188;51.958;5.842;2022-07-30T01:10:09;19.30;85.20
39021;DHT22;25188;51.958;5.842;2022-07-30T01:12:36;19.30;85.30
39021;DHT22;25188;51.958;5.842;2022-07-30T01:15:04;19.20;85.40
39021;DHT22;25188;51.958;5.842;2022-07-30T01:17:30;19.20;85.60
39021;DHT22;25188;51.958;5.842;2022-07-30T01:20:02;19.20;85.80
39021;DHT22;25188;51.958;5.842;2022-07-30T01:22:43;19.10;85.90
39021;DHT22;25188;51.958;5.842;2022-07-30T01:27:59;19.10;86.20
39021;DHT22;25188;51.958;5.842;2022-07-30T01:30:29;19.00;86.30
39021;DHT22;25188;51.958;5.842;2022-07-30T01:32:56;19.00;86.50
39021;DHT22;25188;51.958;5.842;2022-07-30T01:35:24;19.00;86.70
39021;DHT22;25188;51.958;5.842;2022-07-30T01:37:52;19.00;86.90
39021;DHT22;25188;51.958;5.842;2022-07-30T01:40:18;19.00;87.20
39021;DHT22;25188;51.958;5.842;2022-07-30T01:42:49;18.90;87.30
39021;DHT22;25188;51.958;5.842;2022-07-30T01:45:17;18.90;87.60
39021;DHT22;25188;51.958;5.842;2022-07-30T01:47:44;18.80;87.70
39021;DHT22;25188;51.958;5.842;2022-07-30T01:50:12;18.90;88.00
39021;DHT22;25188;51.958;5.842;2022-07-30T01:52:40;18.80;88.10
39021;DHT22;25188;51.958;5.842;2022-07-30T01:55:08;18.80;88.30
39021;DHT22;25188;51.958;5.842;2022-07-30T01:57:35;18.80;88.80
39021;DHT22;25188;51.958;5.842;2022-07-30T02:00:04;18.80;88.60
39021;DHT22;25188;51.958;5.842;2022-07-30T02:02:31;18.80;88.80
39021;DHT22;25188;51.958;5.842;2022-07-30T02:04:58;18.80;89.00
39021;DHT22;25188;51.958;5.842;2022-07-30T02:07:47;18.70;89.20
39021;DHT22;25188;51.958;5.842;2022-07-30T02:10:21;18.80;89.60
39021;DHT22;25188;51.958;5.842;2022-07-30T02:12:52;18.80;89.60
39021;DHT22;25188;51.958;5.842;2022-07-30T02:15:36;18.80;89.80
39021;DHT22;25188;51.958;5.842;2022-07-30T02:18:09;18.80;90.00
39021;DHT22;25188;51.958;5.842;2022-07-30T02:20:38;18.80;90.00
39021;DHT22;25188;51.958;5.842;2022-07-30T02:23:10;18.80;90.00
39021;DHT22;25188;51.958;5.842;2022-07-30T02:25:42;18.80;90.00
39021;DHT22;25188;51.958;5.842;2022-07-30T02:28:10;18.80;90.10
39021;DHT22;25188;51.958;5.842;2022-07-30T02:30:41;18.80;90.10
39021;DHT22;25188;51.958;5.842;2022-07-30T02:33:09;18.80;90.10
39021;DHT22;25188;51.958;5.842;2022-07-30T02:35:37;18.80;90.20
39021;DHT22;25188;51.958;5.842;2022-07-30T02:38:04;18.80;90.30
39021;DHT22;25188;51.958;5.842;2022-07-30T02:40:30;18.80;90.30
39021;DHT22;25188;51.958;5.842;2022-07-30T02:42:57;18.70;90.30
39021;DHT22;25188;51.958;5.842;2022-07-30T02:45:24;18.70;90.40
39021;DHT22;25188;51.958;5.842;2022-07-30T02:47:56;18.70;90.40
39021;DHT22;25188;51.958;5.842;2022-07-30T02:50:23;18.70;90.50
39021;DHT22;25188;51.958;5.842;2022-07-30T02:52:50;18.70;90.60
39021;DHT22;25188;51.958;5.842;2022-07-30T02:55:18;18.70;90.60
39021;DHT22;25188;51.958;5.842;2022-07-30T02:57:45;18.70;90.60
39021;DHT22;25188;51.958;5.842;2022-07-30T03:00:11;18.70;90.70
39021;DHT22;25188;51.958;5.842;2022-07-30T03:02:38;18.70;90.70
39021;DHT22;25188;51.958;5.842;2022-07-30T03:05:06;18.70;90.80
39021;DHT22;25188;51.958;5.842;2022-07-30T03:07:33;18.70;90.90
39021;DHT22;25188;51.958;5.842;2022-07-30T03:10:00;18.70;90.90
39021;DHT22;25188;51.958;5.842;2022-07-30T03:12:29;18.70;90.90
39021;DHT22;25188;51.958;5.842;2022-07-30T03:14:56;18.70;91.00
39021;DHT22;25188;51.958;5.842;2022-07-30T03:17:23;18.70;91.00
39021;DHT22;25188;51.958;5.842;2022-07-30T03:19:52;18.60;91.10
39021;DHT22;25188;51.958;5.842;2022-07-30T03:22:20;18.70;91.10
39021;DHT22;25188;51.958;5.842;2022-07-30T03:24:47;18.60;91.20
39021;DHT22;25188;51.958;5.842;2022-07-30T03:27:14;18.60;91.20
39021;DHT22;25188;51.958;5.842;2022-07-30T03:29:41;18.60;91.20
39021;DHT22;25188;51.958;5.842;2022-07-30T03:32:07;18.60;91.30
39021;DHT22;25188;51.958;5.842;2022-07-30T03:34:35;18.60;91.30
39021;DHT22;25188;51.958;5.842;2022-07-30T03:37:03;18.60;91.40
39021;DHT22;25188;51.958;5.842;2022-07-30T03:39:32;18.60;91.40
39021;DHT22;25188;51.958;5.842;2022-07-30T03:41:58;18.60;91.40
39021;DHT22;25188;51.958;5.842;2022-07-30T03:44:24;18.60;91.40
39021;DHT22;25188;51.958;5.842;2022-07-30T03:46:52;18.60;91.50
39021;DHT22;25188;51.958;5.842;2022-07-30T03:49:19;18.60;91.50
39021;DHT22;25188;51.958;5.842;2022-07-30T03:51:46;18.50;91.50
39021;DHT22;25188;51.958;5.842;2022-07-30T03:54:12;18.50;91.50
39021;DHT22;25188;51.958;5.842;2022-07-30T03:56:38;18.50;91.60
39021;DHT22;25188;51.958;5.842;2022-07-30T03:59:05;18.50;91.90
39021;DHT22;25188;51.958;5.842;2022-07-30T04:01:31;18.60;91.70
39021;DHT22;25188;51.958;5.842;2022-07-30T04:04:07;18.60;91.70
39021;DHT22;25188;51.958;5.842;2022-07-30T04:06:34;18.50;91.70
39021;DHT22;25188;51.958;5.842;2022-07-30T04:09:05;18.60;92.00
39021;DHT22;25188;51.958;5.842;2022-07-30T04:11:31;18.50;91.80
39021;DHT22;25188;51.958;5.842;2022-07-30T04:13:57;18.60;91.90
39021;DHT22;25188;51.958;5.842;2022-07-30T04:16:28;18.60;91.90
39021;DHT22;25188;51.958;5.842;2022-07-30T04:18:58;18.60;92.00
39021;DHT22;25188;51.958;5.842;2022-07-30T04:21:25;18.60;92.00
39021;DHT22;25188;51.958;5.842;2022-07-30T04:23:52;18.60;92.00
39021;DHT22;25188;51.958;5.842;2022-07-30T04:26:19;18.60;92.10
39021;DHT22;25188;51.958;5.842;2022-07-30T04:28:45;18.60;92.10
39021;DHT22;25188;51.958;5.842;2022-07-30T04:31:11;18.60;92.10
39021;DHT22;25188;51.958;5.842;2022-07-30T04:33:37;18.60;92.10
39021;DHT22;25188;51.958;5.842;2022-07-30T04:36:07;18.60;92.10
39021;DHT22;25188;51.958;5.842;2022-07-30T04:38:33;18.60;92.10
39021;DHT22;25188;51.958;5.842;2022-07-30T04:40:58;18.60;92.10
39021;DHT22;25188;51.958;5.842;2022-07-30T04:43:24;18.60;92.10
39021;DHT22;25188;51.958;5.842;2022-07-30T04:45:49;18.60;92.10
39021;DHT22;25188;51.958;5.842;2022-07-30T04:48:15;18.60;92.20
39021;DHT22;25188;51.958;5.842;2022-07-30T04:50:43;18.60;92.20
39021;DHT22;25188;51.958;5.842;2022-07-30T04:53:10;18.60;92.20
39021;DHT22;25188;51.958;5.842;2022-07-30T04:55:40;18.60;92.20
39021;DHT22;25188;51.958;5.842;2022-07-30T04:58:07;18.50;92.20
39021;DHT22;25188;51.958;5.842;2022-07-30T05:00:34;18.60;92.30
39021;DHT22;25188;51.958;5.842;2022-07-30T05:03:01;18.50;92.20
39021;DHT22;25188;51.958;5.842;2022-07-30T05:05:29;18.50;92.20
39021;DHT22;25188;51.958;5.842;2022-07-30T05:07:58;18.50;92.20
39021;DHT22;25188;51.958;5.842;2022-07-30T05:10:24;18.40;92.20
39021;DHT22;25188;51.958;5.842;2022-07-30T05:12:50;18.40;92.20
39021;DHT22;25188;51.958;5.842;2022-07-30T05:15:15;18.40;92.30
39021;DHT22;25188;51.958;5.842;2022-07-30T05:17:41;18.40;92.30
39021;DHT22;25188;51.958;5.842;2022-07-30T05:20:08;18.30;92.30
39021;DHT22;25188;51.958;5.842;2022-07-30T05:22:34;18.30;92.30
39021;DHT22;25188;51.958;5.842;2022-07-30T05:24:59;18.30;92.40
39021;DHT22;25188;51.958;5.842;2022-07-30T05:27:25;18.30;92.40
39021;DHT22;25188;51.958;5.842;2022-07-30T05:29:50;18.20;92.30
39021;DHT22;25188;51.958;5.842;2022-07-30T05:32:16;18.30;92.40
39021;DHT22;25188;51.958;5.842;2022-07-30T05:34:42;18.20;92.30
39021;DHT22;25188;51.958;5.842;2022-07-30T05:37:08;18.30;92.30
39021;DHT22;25188;51.958;5.842;2022-07-30T05:39:33;18.20;92.30
39021;DHT22;25188;51.958;5.842;2022-07-30T05:41:59;18.20;92.30
39021;DHT22;25188;51.958;5.842;2022-07-30T05:44:25;18.20;92.30
39021;DHT22;25188;51.958;5.842;2022-07-30T05:46:50;18.20;92.30
39021;DHT22;25188;51.958;5.842;2022-07-30T05:49:16;18.30;92.30
39021;DHT22;25188;51.958;5.842;2022-07-30T05:51:42;18.30;92.30
39021;DHT22;25188;51.958;5.842;2022-07-30T05:54:08;18.30;92.30
39021;DHT22;25188;51.958;5.842;2022-07-30T05:56:33;18.20;92.30
39021;DHT22;25188;51.958;5.842;2022-07-30T05:59:00;18.20;92.30
39021;DHT22;25188;51.958;5.842;2022-07-30T06:01:26;18.20;92.40
39021;DHT22;25188;51.958;5.842;2022-07-30T06:03:51;18.20;92.40
39021;DHT22;25188;51.958;5.842;2022-07-30T06:06:17;18.30;92.40
39021;DHT22;25188;51.958;5.842;2022-07-30T06:08:42;18.40;92.60
39021;DHT22;25188;51.958;5.842;2022-07-30T06:11:08;18.40;92.30
39021;DHT22;25188;51.958;5.842;2022-07-30T06:13:34;18.40;92.30
39021;DHT22;25188;51.958;5.842;2022-07-30T06:16:00;18.50;92.30
39021;DHT22;25188;51.958;5.842;2022-07-30T06:18:26;18.50;92.30
39021;DHT22;25188;51.958;5.842;2022-07-30T06:20:52;18.50;92.20
39021;DHT22;25188;51.958;5.842;2022-07-30T06:23:20;18.50;92.20
39021;DHT22;25188;51.958;5.842;2022-07-30T06:25:46;18.50;92.10
39021;DHT22;25188;51.958;5.842;2022-07-30T06:28:13;18.60;92.10
39021;DHT22;25188;51.958;5.842;2022-07-30T06:30:39;18.60;92.00
39021;DHT22;25188;51.958;5.842;2022-07-30T06:33:08;18.50;91.90
39021;DHT22;25188;51.958;5.842;2022-07-30T06:35:34;18.50;92.00
39021;DHT22;25188;51.958;5.842;2022-07-30T06:38:00;18.60;92.00
39021;DHT22;25188;51.958;5.842;2022-07-30T06:40:25;18.60;92.00
39021;DHT22;25188;51.958;5.842;2022-07-30T06:42:51;18.70;92.00
39021;DHT22;25188;51.958;5.842;2022-07-30T06:45:16;18.70;91.90
39021;DHT22;25188;51.958;5.842;2022-07-30T06:47:42;18.70;91.80
39021;DHT22;25188;51.958;5.842;2022-07-30T06:50:08;18.70;91.80
39021;DHT22;25188;51.958;5.842;2022-07-30T06:52:34;18.80;91.70
39021;DHT22;25188;51.958;5.842;2022-07-30T06:54:59;18.80;91.60
39021;DHT22;25188;51.958;5.842;2022-07-30T06:57:25;18.90;91.50
39021;DHT22;25188;51.958;5.842;2022-07-30T06:59:51;18.90;91.40
39021;DHT22;25188;51.958;5.842;2022-07-30T07:02:17;19.00;91.30
39021;DHT22;25188;51.958;5.842;2022-07-30T07:04:43;19.00;91.30
39021;DHT22;25188;51.958;5.842;2022-07-30T07:07:09;19.10;91.10
39021;DHT22;25188;51.958;5.842;2022-07-30T07:09:34;19.10;91.00
39021;DHT22;25188;51.958;5.842;2022-07-30T07:12:00;19.20;90.80
39021;DHT22;25188;51.958;5.842;2022-07-30T07:14:26;19.20;90.70
39021;DHT22;25188;51.958;5.842;2022-07-30T07:16:51;19.30;90.50
39021;DHT22;25188;51.958;5.842;2022-07-30T07:19:17;19.40;90.70
39021;DHT22;25188;51.958;5.842;2022-07-30T07:21:43;19.40;90.20
39021;DHT22;25188;51.958;5.842;2022-07-30T07:24:09;19.50;90.00
39021;DHT22;25188;51.958;5.842;2022-07-30T07:26:34;19.50;89.80
39021;DHT22;25188;51.958;5.842;2022-07-30T07:29:00;19.60;89.60
39021;DHT22;25188;51.958;5.842;2022-07-30T07:31:26;19.70;89.10
39021;DHT22;25188;51.958;5.842;2022-07-30T07:33:52;19.70;88.70
39021;DHT22;25188;51.958;5.842;2022-07-30T07:36:20;19.80;88.30
39021;DHT22;25188;51.958;5.842;2022-07-30T07:38:46;19.90;87.90
39021;DHT22;25188;51.958;5.842;2022-07-30T07:41:11;19.90;87.40
39021;DHT22;25188;51.958;5.842;2022-07-30T07:43:37;19.90;86.80
39021;DHT22;25188;51.958;5.842;2022-07-30T07:46:05;20.00;86.40
39021;DHT22;25188;51.958;5.842;2022-07-30T07:48:30;20.10;86.00
39021;DHT22;25188;51.958;5.842;2022-07-30T07:50:56;20.10;85.60
39021;DHT22;25188;51.958;5.842;2022-07-30T07:53:22;20.10;85.20
39021;DHT22;25188;51.958;5.842;2022-07-30T07:55:47;20.20;85.20
39021;DHT22;25188;51.958;5.842;2022-07-30T07:58:13;20.20;85.00
39021;DHT22;25188;51.958;5.842;2022-07-30T08:00:40;20.30;84.40
39021;DHT22;25188;51.958;5.842;2022-07-30T08:03:05;20.30;83.80
39021;DHT22;25188;51.958;5.842;2022-07-30T08:05:31;20.30;83.30
39021;DHT22;25188;51.958;5.842;2022-07-30T08:07:57;20.40;83.00
39021;DHT22;25188;51.958;5.842;2022-07-30T08:10:23;20.40;83.20
39021;DHT22;25188;51.958;5.842;2022-07-30T08:12:48;20.40;81.90
39021;DHT22;25188;51.958;5.842;2022-07-30T08:15:14;20.50;81.40
39021;DHT22;25188;51.958;5.842;2022-07-30T08:17:44;20.50;81.00
39021;DHT22;25188;51.958;5.842;2022-07-30T08:20:11;20.50;80.60
39021;DHT22;25188;51.958;5.842;2022-07-30T08:22:37;20.60;80.30
39021;DHT22;25188;51.958;5.842;2022-07-30T08:25:03;20.50;79.80
39021;DHT22;25188;51.958;5.842;2022-07-30T08:27:29;20.60;79.40
39021;DHT22;25188;51.958;5.842;2022-07-30T08:29:55;20.60;79.10
39021;DHT22;25188;51.958;5.842;2022-07-30T08:32:21;20.70;78.80
39021;DHT22;25188;51.958;5.842;2022-07-30T08:34:46;20.70;78.30
39021;DHT22;25188;51.958;5.842;2022-07-30T08:37:12;20.80;78.00
39021;DHT22;25188;51.958;5.842;2022-07-30T08:39:38;20.80;77.90
39021;DHT22;25188;51.958;5.842;2022-07-30T08:42:04;20.80;77.70
39021;DHT22;25188;51.958;5.842;2022-07-30T08:44:31;20.80;77.40
39021;DHT22;25188;51.958;5.842;2022-07-30T08:46:58;20.80;77.10
39021;DHT22;25188;51.958;5.842;2022-07-30T08:49:25;20.90;77.00
39021;DHT22;25188;51.958;5.842;2022-07-30T08:51:51;20.90;76.80
39021;DHT22;25188;51.958;5.842;2022-07-30T08:54:19;20.90;76.50
39021;DHT22;25188;51.958;5.842;2022-07-30T08:56:45;21.00;76.20
39021;DHT22;25188;51.958;5.842;2022-07-30T08:59:15;21.00;75.90
39021;DHT22;25188;51.958;5.842;2022-07-30T09:01:41;21.00;75.40
39021;DHT22;25188;51.958;5.842;2022-07-30T09:04:06;21.00;74.90
39021;DHT22;25188;51.958;5.842;2022-07-30T09:06:32;21.00;74.80
39021;DHT22;25188;51.958;5.842;2022-07-30T09:08:58;21.10;74.80
39021;DHT22;25188;51.958;5.842;2022-07-30T09:11:24;21.20;74.80
39021;DHT22;25188;51.958;5.842;2022-07-30T09:13:49;21.20;74.60
39021;DHT22;25188;51.958;5.842;2022-07-30T09:16:21;21.20;74.10
39021;DHT22;25188;51.958;5.842;2022-07-30T09:18:47;21.30;73.50
39021;DHT22;25188;51.958;5.842;2022-07-30T09:21:19;21.20;72.80
39021;DHT22;25188;51.958;5.842;2022-07-30T09:24:06;21.30;72.30
39021;DHT22;25188;51.958;5.842;2022-07-30T09:29:22;21.30;71.70
39021;DHT22;25188;51.958;5.842;2022-07-30T09:32:01;21.40;71.70
39021;DHT22;25188;51.958;5.842;2022-07-30T09:34:29;21.50;71.80
39021;DHT22;25188;51.958;5.842;2022-07-30T09:36:57;21.50;71.70
39021;DHT22;25188;51.958;5.842;2022-07-30T09:39:34;21.60;71.50
39021;DHT22;25188;51.958;5.842;2022-07-30T09:42:02;21.60;71.90
39021;DHT22;25188;51.958;5.842;2022-07-30T09:44:29;21.60;71.10
39021;DHT22;25188;51.958;5.842;2022-07-30T09:46:56;21.70;70.70
39021;DHT22;25188;51.958;5.842;2022-07-30T09:49:27;21.70;70.60
39021;DHT22;25188;51.958;5.842;2022-07-30T09:51:54;21.70;70.40
39021;DHT22;25188;51.958;5.842;2022-07-30T09:54:20;21.70;70.20
39021;DHT22;25188;51.958;5.842;2022-07-30T09:56:45;21.80;70.10
39021;DHT22;25188;51.958;5.842;2022-07-30T09:59:27;21.80;69.80
39021;DHT22;25188;51.958;5.842;2022-07-30T10:01:54;21.90;69.40
39021;DHT22;25188;51.958;5.842;2022-07-30T10:04:38;22.00;69.20
39021;DHT22;25188;51.958;5.842;2022-07-30T10:07:04;22.00;69.00
39021;DHT22;25188;51.958;5.842;2022-07-30T10:09:41;22.10;68.90
39021;DHT22;25188;51.958;5.842;2022-07-30T10:12:10;22.10;68.60
39021;DHT22;25188;51.958;5.842;2022-07-30T10:14:41;22.10;68.30
39021;DHT22;25188;51.958;5.842;2022-07-30T10:17:08;22.20;68.00
39021;DHT22;25188;51.958;5.842;2022-07-30T10:19:33;22.20;67.50
39021;DHT22;25188;51.958;5.842;2022-07-30T10:22:02;22.30;67.10
39021;DHT22;25188;51.958;5.842;2022-07-30T10:24:29;22.30;66.40
39021;DHT22;25188;51.958;5.842;2022-07-30T10:26:56;22.40;65.80
39021;DHT22;25188;51.958;5.842;2022-07-30T10:29:22;22.50;65.30
39021;DHT22;25188;51.958;5.842;2022-07-30T10:31:48;22.50;64.90
39021;DHT22;25188;51.958;5.842;2022-07-30T10:34:16;22.60;64.70
39021;DHT22;25188;51.958;5.842;2022-07-30T10:36:44;22.70;64.60
39021;DHT22;25188;51.958;5.842;2022-07-30T10:39:15;22.80;64.30
39021;DHT22;25188;51.958;5.842;2022-07-30T10:41:50;22.90;64.00
39021;DHT22;25188;51.958;5.842;2022-07-30T10:47:05;23.30;62.90
39021;DHT22;25188;51.958;5.842;2022-07-30T10:49:31;23.50;62.80
39021;DHT22;25188;51.958;5.842;2022-07-30T10:51:57;23.70;62.30
39021;DHT22;25188;51.958;5.842;2022-07-30T11:02:18;24.50;61.20
39021;DHT22;25188;51.958;5.842;2022-07-30T11:04:44;24.60;60.50
39021;DHT22;25188;51.958;5.842;2022-07-30T11:09:58;25.00;59.80
39021;DHT22;25188;51.958;5.842;2022-07-30T11:15:16;25.40;58.70
39021;DHT22;25188;51.958;5.842;2022-07-30T11:18:04;25.60;58.80
39021;DHT22;25188;51.958;5.842;2022-07-30T11:20:31;25.90;58.20
39021;DHT22;25188;51.958;5.842;2022-07-30T11:23:08;26.10;58.30
39021;DHT22;25188;51.958;5.842;2022-07-30T11:28:00;26.50;57.60
39021;DHT22;25188;51.958;5.842;2022-07-30T11:30:30;26.60;57.20
39021;DHT22;25188;51.958;5.842;2022-07-30T11:35:41;27.00;56.50
39021;DHT22;25188;51.958;5.842;2022-07-30T11:38:14;27.10;56.70
39021;DHT22;25188;51.958;5.842;2022-07-30T11:46:04;27.60;56.10
39021;DHT22;25188;51.958;5.842;2022-07-30T11:48:31;27.80;55.80
39021;DHT22;25188;51.958;5.842;2022-07-30T11:50:57;27.90;55.80
39021;DHT22;25188;51.958;5.842;2022-07-30T11:53:23;28.00;55.30
39021;DHT22;25188;51.958;5.842;2022-07-30T11:55:57;28.00;54.70
39021;DHT22;25188;51.958;5.842;2022-07-30T12:00:56;28.10;54.40
39021;DHT22;25188;51.958;5.842;2022-07-30T12:03:23;28.20;54.20
39021;DHT22;25188;51.958;5.842;2022-07-30T12:05:50;28.30;54.00
39021;DHT22;25188;51.958;5.842;2022-07-30T12:08:16;28.50;53.50
39021;DHT22;25188;51.958;5.842;2022-07-30T12:10:42;28.60;53.10
39021;DHT22;25188;51.958;5.842;2022-07-30T12:13:11;28.90;52.80
39021;DHT22;25188;51.958;5.842;2022-07-30T12:15:39;29.00;52.40
39021;DHT22;25188;51.958;5.842;2022-07-30T12:18:05;29.20;52.00
39021;DHT22;25188;51.958;5.842;2022-07-30T12:20:32;29.50;51.70
39021;DHT22;25188;51.958;5.842;2022-07-30T12:22:58;29.70;51.40
39021;DHT22;25188;51.958;5.842;2022-07-30T12:25:24;29.90;51.30
39021;DHT22;25188;51.958;5.842;2022-07-30T12:27:50;30.10;50.80
39021;DHT22;25188;51.958;5.842;2022-07-30T12:30:17;30.30;50.40
39021;DHT22;25188;51.958;5.842;2022-07-30T12:32:43;30.50;50.20
39021;DHT22;25188;51.958;5.842;2022-07-30T12:35:10;30.80;49.70
39021;DHT22;25188;51.958;5.842;2022-07-30T12:37:36;31.00;49.00
39021;DHT22;25188;51.958;5.842;2022-07-30T12:40:13;31.30;48.60
39021;DHT22;25188;51.958;5.842;2022-07-30T12:43:08;31.40;47.80
39021;DHT22;25188;51.958;5.842;2022-07-30T12:45:35;31.70;47.10
39021;DHT22;25188;51.958;5.842;2022-07-30T12:48:01;31.90;47.40
39021;DHT22;25188;51.958;5.842;2022-07-30T12:50:27;31.90;46.60
39021;DHT22;25188;51.958;5.842;2022-07-30T12:52:54;31.90;46.20
39021;DHT22;25188;51.958;5.842;2022-07-30T12:55:30;31.80;45.80
39021;DHT22;25188;51.958;5.842;2022-07-30T12:58:05;31.70;45.80
39021;DHT22;25188;51.958;5.842;2022-07-30T13:03:28;31.50;45.60
39021;DHT22;25188;51.958;5.842;2022-07-30T13:05:55;31.50;46.10
39021;DHT22;25188;51.958;5.842;2022-07-30T13:11:10;31.50;45.40
39021;DHT22;25188;51.958;5.842;2022-07-30T13:13:36;31.50;45.60
39021;DHT22;25188;51.958;5.842;2022-07-30T13:16:04;31.70;45.50
39021;DHT22;25188;51.958;5.842;2022-07-30T13:18:31;31.90;45.40
39021;DHT22;25188;51.958;5.842;2022-07-30T13:20:58;32.00;45.20
39021;DHT22;25188;51.958;5.842;2022-07-30T13:23:24;32.20;45.10
39021;DHT22;25188;51.958;5.842;2022-07-30T13:25:51;32.30;44.90
39021;DHT22;25188;51.958;5.842;2022-07-30T13:28:17;32.30;44.70
39021;DHT22;25188;51.958;5.842;2022-07-30T13:30:43;32.30;44.80
39021;DHT22;25188;51.958;5.842;2022-07-30T13:33:09;32.40;44.70
39021;DHT22;25188;51.958;5.842;2022-07-30T13:35:34;32.40;44.40
39021;DHT22;25188;51.958;5.842;2022-07-30T13:38:00;32.50;44.40
39021;DHT22;25188;51.958;5.842;2022-07-30T13:40:27;32.60;44.40
39021;DHT22;25188;51.958;5.842;2022-07-30T13:42:53;32.70;44.30
39021;DHT22;25188;51.958;5.842;2022-07-30T13:45:19;32.80;44.20
39021;DHT22;25188;51.958;5.842;2022-07-30T13:47:44;32.80;44.70
39021;DHT22;25188;51.958;5.842;2022-07-30T13:50:10;32.80;44.00
39021;DHT22;25188;51.958;5.842;2022-07-30T13:52:35;32.90;43.90
39021;DHT22;25188;51.958;5.842;2022-07-30T13:55:01;32.90;43.80
39021;DHT22;25188;51.958;5.842;2022-07-30T13:57:27;33.00;43.70
39021;DHT22;25188;51.958;5.842;2022-07-30T13:59:52;33.20;43.60
39021;DHT22;25188;51.958;5.842;2022-07-30T14:02:18;33.40;43.60
39021;DHT22;25188;51.958;5.842;2022-07-30T14:04:44;33.60;43.50
39021;DHT22;25188;51.958;5.842;2022-07-30T14:07:09;33.70;43.20
39021;DHT22;25188;51.958;5.842;2022-07-30T14:09:35;33.90;42.70
39021;DHT22;25188;51.958;5.842;2022-07-30T14:12:01;34.00;42.30
39021;DHT22;25188;51.958;5.842;2022-07-30T14:14:26;34.10;42.10
39021;DHT22;25188;51.958;5.842;2022-07-30T14:16:52;34.10;42.00
39021;DHT22;25188;51.958;5.842;2022-07-30T14:19:18;34.10;42.00
39021;DHT22;25188;51.958;5.842;2022-07-30T14:21:44;33.90;41.90
39021;DHT22;25188;51.958;5.842;2022-07-30T14:24:10;33.80;41.90
39021;DHT22;25188;51.958;5.842;2022-07-30T14:26:37;33.60;41.70
39021;DHT22;25188;51.958;5.842;2022-07-30T14:29:06;33.30;42.50
39021;DHT22;25188;51.958;5.842;2022-07-30T14:31:33;33.10;42.20
39021;DHT22;25188;51.958;5.842;2022-07-30T14:33:59;32.90;42.50
39021;DHT22;25188;51.958;5.842;2022-07-30T14:36:24;32.80;42.80
39021;DHT22;25188;51.958;5.842;2022-07-30T14:38:57;32.60;42.80
39021;DHT22;25188;51.958;5.842;2022-07-30T14:41:24;32.60;42.90
39021;DHT22;25188;51.958;5.842;2022-07-30T14:43:50;32.60;43.10
39021;DHT22;25188;51.958;5.842;2022-07-30T14:46:16;32.60;43.10
39021;DHT22;25188;51.958;5.842;2022-07-30T14:48:42;32.70;42.90
39021;DHT22;25188;51.958;5.842;2022-07-30T14:51:08;32.80;42.70
39021;DHT22;25188;51.958;5.842;2022-07-30T14:53:33;32.90;42.70
39021;DHT22;25188;51.958;5.842;2022-07-30T14:55:59;33.00;42.60
39021;DHT22;25188;51.958;5.842;2022-07-30T14:58:25;33.00;42.50
39021;DHT22;25188;51.958;5.842;2022-07-30T15:00:51;33.10;42.30
39021;DHT22;25188;51.958;5.842;2022-07-30T15:03:17;33.20;42.40
39021;DHT22;25188;51.958;5.842;2022-07-30T15:05:42;33.30;42.40
39021;DHT22;25188;51.958;5.842;2022-07-30T15:08:08;33.20;42.40
39021;DHT22;25188;51.958;5.842;2022-07-30T15:10:34;33.20;42.50
39021;DHT22;25188;51.958;5.842;2022-07-30T15:12:59;33.10;42.40
39021;DHT22;25188;51.958;5.842;2022-07-30T15:15:25;32.90;43.10
39021;DHT22;25188;51.958;5.842;2022-07-30T15:17:51;32.80;42.60
39021;DHT22;25188;51.958;5.842;2022-07-30T15:20:16;32.70;42.70
39021;DHT22;25188;51.958;5.842;2022-07-30T15:22:43;32.50;42.70
39021;DHT22;25188;51.958;5.842;2022-07-30T15:25:09;32.40;42.80
39021;DHT22;25188;51.958;5.842;2022-07-30T15:27:34;32.20;42.80
39021;DHT22;25188;51.958;5.842;2022-07-30T15:30:01;32.10;43.00
39021;DHT22;25188;51.958;5.842;2022-07-30T15:32:26;31.90;44.00
39021;DHT22;25188;51.958;5.842;2022-07-30T15:34:52;31.80;43.80
39021;DHT22;25188;51.958;5.842;2022-07-30T15:37:18;31.60;43.90
39021;DHT22;25188;51.958;5.842;2022-07-30T15:39:43;31.50;44.00
39021;DHT22;25188;51.958;5.842;2022-07-30T15:42:09;31.40;43.90
39021;DHT22;25188;51.958;5.842;2022-07-30T15:44:34;31.30;43.60
39021;DHT22;25188;51.958;5.842;2022-07-30T15:47:00;31.20;43.60
39021;DHT22;25188;51.958;5.842;2022-07-30T15:49:26;31.10;43.60
39021;DHT22;25188;51.958;5.842;2022-07-30T15:51:52;31.00;43.80
39021;DHT22;25188;51.958;5.842;2022-07-30T15:54:20;31.00;43.90
39021;DHT22;25188;51.958;5.842;2022-07-30T15:56:49;31.00;44.00
39021;DHT22;25188;51.958;5.842;2022-07-30T15:59:15;31.00;44.20
39021;DHT22;25188;51.958;5.842;2022-07-30T16:01:41;31.00;44.30
39021;DHT22;25188;51.958;5.842;2022-07-30T16:04:08;31.00;44.40
39021;DHT22;25188;51.958;5.842;2022-07-30T16:06:34;31.00;44.40
39021;DHT22;25188;51.958;5.842;2022-07-30T16:09:01;31.00;44.40
39021;DHT22;25188;51.958;5.842;2022-07-30T16:11:27;31.00;44.50